Time;durP1;ratioP1;P1;durP2;ratioP2;P2;SDS_P1;SDS_P2;PMS_P1;PMS_P2;Temp;Humidity;BMP_temperature;BMP_pressure;BME280_temperature;BME280_humidity;BME280_pressure;Samples;Min_cycle;Max_cycle;Signal;HPM_P1;HPM_P2
2022/06/12 00:01:05;;;;;;;;;;;;;;;;;;4940762;28;19918;-60
2022/06/12 00:03:33;;;;;;;;;;;;;;;;;;4934760;28;19922;-61
2022/06/12 00:06:00;;;;;;;;;;;;;;;;;;4919249;28;19953;-61
2022/06/12 00:08:26;;;;;;;;;;;;;;;;;;4943747;28;19919;-61
2022/06/12 00:10:51;;;;;;;;;;;;;;;;;;4939497;28;20784;-62
2022/06/12 00:13:19;;;;;;;;;;;;;;;;;;4938190;28;19922;-61
2022/06/12 00:15:45;;;;;;;;;;;;;;;;;;4940294;28;19937;-61
2022/06/12 00:18:10;;;;;;;;;;;;;;;;;;4938296;28;19932;-62
2022/06/12 00:20:35;;;;;;;;;;;;;;;;;;4922862;28;19933;-62
2022/06/12 00:23:03;;;;;;;;;;;;;;;;;;4956866;28;19926;-60
2022/06/12 00:25:31;;;;;;;;;;;;;;;;;;4956669;28;19980;-60
2022/06/12 00:27:56;;;;;;;;;;;;;;;;;;4934660;28;22649;-61
2022/06/12 00:30:21;;;;;;;;;;;;;;;;;;4954385;28;19925;-62
2022/06/12 00:32:49;;;;;;;;;;;;;;;;;;4934735;28;19926;-61
2022/06/12 00:35:19;;;;;;;;;;;;;;;;;;4939149;28;19922;-61
2022/06/12 00:37:44;;;;;;;;;;;;;;;;;;4935888;28;20021;-61
2022/06/12 00:40:09;;;;;;;;;;;;;;;;;;4973172;28;19922;-61
2022/06/12 00:42:35;;;;;;;;;;;;;;;;;;4937592;28;19925;-61
2022/06/12 00:45:00;;;;;;;;;;;;;;;;;;4961543;28;19972;-61
2022/06/12 00:47:28;;;;;;;;;;;;;;;;;;4924286;28;19925;-61
2022/06/12 00:49:56;;;;;;;;;;;;;;;;;;4954086;28;19933;-61
2022/06/12 00:52:21;;;;;;;;;;;;;;;;;;4942336;28;19961;-61
2022/06/12 00:54:49;;;;;;;;;;;;;;;;;;4945069;28;22158;-61
2022/06/12 00:57:14;;;;;;;;;;;;;;;;;;4938564;28;19926;-61
2022/06/12 00:59:39;;;;;;;;;;;;;;;;;;4942314;28;19925;-61
2022/06/12 01:02:07;;;;;;;;;;;;;;;;;;4940712;28;20179;-61
2022/06/12 01:07:21;;;;;;;;;;;;;;;;;;4943423;28;22976;-61
2022/06/12 01:09:47;;;;;;;;;;;;;;;;;;4942744;28;19918;-61
2022/06/12 01:12:13;;;;;;;;;;;;;;;;;;4939323;28;19924;-61
2022/06/12 01:14:39;;;;;;;;;;;;;;;;;;4942299;28;19926;-60
2022/06/12 01:17:04;;;;;;;;;;;;;;;;;;4948957;28;19953;-61
2022/06/12 01:19:29;;;;;;;;;;;;;;;;;;4957370;28;19930;-61
2022/06/12 01:21:57;;;;;;;;;;;;;;;;;;4956472;28;19933;-61
2022/06/12 01:24:24;;;;;;;;;;;;;;;;;;4950889;28;19933;-60
2022/06/12 01:26:52;;;;;;;;;;;;;;;;;;4941875;28;19925;-60
2022/06/12 01:29:17;;;;;;;;;;;;;;;;;;4957798;28;20077;-61
2022/06/12 01:31:43;;;;;;;;;;;;;;;;;;4963704;28;19948;-61
2022/06/12 01:34:08;;;;;;;;;;;;;;;;;;4959348;28;19918;-61
2022/06/12 01:36:33;;;;;;;;;;;;;;;;;;4960400;28;19976;-61
2022/06/12 01:38:59;;;;;;;;;;;;;;;;;;4959156;28;19921;-61
2022/06/12 01:41:24;;;;;;;;;;;;;;;;;;4959516;28;19918;-60
2022/06/12 01:43:52;;;;;;;;;;;;;;;;;;4964281;28;20381;-61
2022/06/12 01:46:20;;;;;;;;;;;;;;;;;;4962405;28;20649;-61
2022/06/12 01:48:50;;;;;;;;;;;;;;;;;;4963245;28;19921;-61
2022/06/12 01:51:19;;;;;;;;;;;;;;;;;;4958922;28;19929;-61
2022/06/12 01:53:46;;;;;;;;;;;;;;;;;;4955436;28;20651;-61
2022/06/12 01:56:12;;;;;;;;;;;;;;;;;;4958909;28;19925;-61
2022/06/12 01:58:45;;;;;;;;;;;;;;;;;;4966635;28;22053;-61
2022/06/12 02:01:11;;;;;;;;;;;;;;;;;;4959914;28;19958;-60
2022/06/12 02:03:38;;;;;;;;;;;;;;;;;;4961177;28;19922;-61
2022/06/12 02:06:06;;;;;;;;;;;;;;;;;;4962914;28;20486;-61
2022/06/12 02:08:31;;;;;;;;;;;;;;;;;;4957711;28;19922;-62
2022/06/12 02:13:10;;;;;;;;;;;;;;;;;;4959133;28;19922;-60
2022/06/12 02:13:42;;;;;;;;;;;;;;;;;;4960196;28;19917;-60
2022/06/12 02:16:09;;;;;;;;;;;;;;;;;;4940438;28;19921;-61
2022/06/12 02:18:35;;;;;;;;;;;;;;;;;;4957770;28;20065;-60
2022/06/12 02:21:01;;;;;;;;;;;;;;;;;;4942531;28;19922;-61
2022/06/12 02:23:26;;;;;;;;;;;;;;;;;;4937317;28;19992;-61
2022/06/12 02:25:56;;;;;;;;;;;;;;;;;;4954238;28;20404;-60
2022/06/12 02:28:23;;;;;;;;;;;;;;;;;;4958502;28;19922;-61
2022/06/12 02:30:48;;;;;;;;;;;;;;;;;;4960830;28;19924;-61
2022/06/12 02:33:14;;;;;;;;;;;;;;;;;;4960091;28;20056;-60
2022/06/12 02:35:41;;;;;;;;;;;;;;;;;;4959203;28;20386;-60
2022/06/12 02:38:09;;;;;;;;;;;;;;;;;;4951704;28;20630;-61
2022/06/12 02:40:34;;;;;;;;;;;;;;;;;;4961393;28;19928;-61
2022/06/12 02:43:00;;;;;;;;;;;;;;;;;;4956414;28;19976;-61
2022/06/12 02:45:25;;;;;;;;;;;;;;;;;;4952829;28;19956;-61
2022/06/12 02:47:53;;;;;;;;;;;;;;;;;;4956491;28;19925;-61
2022/06/12 02:50:22;;;;;;;;;;;;;;;;;;4957121;28;19949;-62
2022/06/12 02:52:47;;;;;;;;;;;;;;;;;;4970525;28;20431;-62
2022/06/12 02:55:12;;;;;;;;;;;;;;;;;;4964595;28;19922;-61
2022/06/12 02:57:40;;;;;;;;;;;;;;;;;;4949940;28;20004;-63
2022/06/12 03:00:08;;;;;;;;;;;;;;;;;;4962648;28;20056;-60
2022/06/12 03:02:34;;;;;;;;;;;;;;;;;;4975603;28;19921;-61
2022/06/12 03:04:59;;;;;;;;;;;;;;;;;;4954324;28;20516;-61
2022/06/12 03:07:24;;;;;;;;;;;;;;;;;;4954039;28;20143;-61
2022/06/12 03:09:50;;;;;;;;;;;;;;;;;;4957141;28;19922;-61
2022/06/12 03:12:17;;;;;;;;;;;;;;;;;;4957043;28;19918;-61
2022/06/12 03:14:43;;;;;;;;;;;;;;;;;;4957152;28;19952;-61
2022/06/12 03:17:11;;;;;;;;;;;;;;;;;;4957542;28;19920;-61
2022/06/12 03:19:42;;;;;;;;;;;;;;;;;;4955295;28;20559;-61
2022/06/12 03:22:07;;;;;;;;;;;;;;;;;;4958206;28;19957;-69
2022/06/12 03:24:35;;;;;;;;;;;;;;;;;;4954085;28;19925;-61
2022/06/12 03:27:03;;;;;;;;;;;;;;;;;;4956250;28;19944;-62
2022/06/12 03:29:28;;;;;;;;;;;;;;;;;;4942851;28;19965;-62
2022/06/12 03:31:54;;;;;;;;;;;;;;;;;;4958855;28;20036;-61
2022/06/12 03:34:21;;;;;;;;;;;;;;;;;;4970513;28;19922;-62
2022/06/12 03:36:49;;;;;;;;;;;;;;;;;;4960966;28;20483;-61
2022/06/12 03:39:14;;;;;;;;;;;;;;;;;;4959656;28;20010;-62
2022/06/12 03:41:40;;;;;;;;;;;;;;;;;;4953057;28;19932;-62
2022/06/12 03:44:09;;;;;;;;;;;;;;;;;;4958037;28;19997;-61
2022/06/12 03:46:35;;;;;;;;;;;;;;;;;;4957938;28;20715;-62
2022/06/12 03:49:00;;;;;;;;;;;;;;;;;;4955904;28;19928;-62
2022/06/12 03:51:25;;;;;;;;;;;;;;;;;;4953023;28;19922;-62
2022/06/12 03:53:51;;;;;;;;;;;;;;;;;;4955941;28;19918;-62
2022/06/12 03:59:03;;;;;;;;;;;;;;;;;;4959631;28;19987;-62
2022/06/12 04:01:29;;;;;;;;;;;;;;;;;;4959351;28;19930;-62
2022/06/12 04:03:54;;;;;;;;;;;;;;;;;;4951553;28;20567;-62
2022/06/12 04:06:22;;;;;;;;;;;;;;;;;;4958674;28;19914;-62
2022/06/12 04:08:47;;;;;;;;;;;;;;;;;;4960616;28;19936;-62
2022/06/12 04:11:13;;;;;;;;;;;;;;;;;;4958926;28;20488;-62
2022/06/12 04:13:38;;;;;;;;;;;;;;;;;;4940930;28;19960;-61
2022/06/12 04:16:05;;;;;;;;;;;;;;;;;;4957780;28;19926;-62
2022/06/12 04:18:31;;;;;;;;;;;;;;;;;;4944644;28;19932;-61
2022/06/12 04:20:56;;;;;;;;;;;;;;;;;;4961576;28;20486;-62
2022/06/12 04:23:21;;;;;;;;;;;;;;;;;;4967363;28;19937;-62
2022/06/12 04:25:50;;;;;;;;;;;;;;;;;;4978845;28;19948;-62
2022/06/12 04:28:15;;;;;;;;;;;;;;;;;;4983101;28;20392;-62
2022/06/12 04:30:40;;;;;;;;;;;;;;;;;;4980143;28;20514;-64
2022/06/12 04:33:09;;;;;;;;;;;;;;;;;;4982666;28;20428;-62
2022/06/12 04:35:34;;;;;;;;;;;;;;;;;;4963108;28;20325;-61
2022/06/12 04:38:01;;;;;;;;;;;;;;;;;;4979404;28;20353;-61
2022/06/12 04:40:27;;;;;;;;;;;;;;;;;;4963954;28;19933;-63
2022/06/12 04:42:53;;;;;;;;;;;;;;;;;;4979206;28;19964;-62
2022/06/12 04:45:21;;;;;;;;;;;;;;;;;;4982515;28;19921;-60
2022/06/12 04:47:46;;;;;;;;;;;;;;;;;;4954518;28;19927;-61
2022/06/12 04:50:12;;;;;;;;;;;;;;;;;;4981719;28;19932;-62
2022/06/12 04:52:37;;;;;;;;;;;;;;;;;;4981218;28;19988;-62
2022/06/12 04:55:02;;;;;;;;;;;;;;;;;;4980814;28;19936;-62
2022/06/12 04:57:27;;;;;;;;;;;;;;;;;;4960926;28;19926;-62
2022/06/12 04:59:53;;;;;;;;;;;;;;;;;;4983173;28;19969;-62
2022/06/12 05:02:21;;;;;;;;;;;;;;;;;;4982675;28;20012;-61
2022/06/12 05:04:49;;;;;;;;;;;;;;;;;;4984008;28;20016;-62
2022/06/12 05:07:15;;;;;;;;;;;;;;;;;;4982944;28;19932;-62
2022/06/12 05:09:40;;;;;;;;;;;;;;;;;;4964730;28;19921;-62
2022/06/12 05:12:05;;;;;;;;;;;;;;;;;;4963178;28;19960;-62
2022/06/12 05:14:33;;;;;;;;;;;;;;;;;;4956232;28;19925;-63
2022/06/12 05:17:01;;;;;;;;;;;;;;;;;;4964617;28;19921;-62
2022/06/12 05:19:27;;;;;;;;;;;;;;;;;;4963557;28;19925;-62
2022/06/12 05:21:55;;;;;;;;;;;;;;;;;;4969909;28;19964;-62
2022/06/12 05:24:20;;;;;;;;;;;;;;;;;;4968210;28;20907;-62
2022/06/12 05:26:48;;;;;;;;;;;;;;;;;;4971092;28;19937;-60
2022/06/12 05:29:13;;;;;;;;;;;;;;;;;;4988348;28;20055;-62
2022/06/12 05:31:41;;;;;;;;;;;;;;;;;;4983472;28;20274;-63
2022/06/12 05:34:06;;;;;;;;;;;;;;;;;;4981114;28;19921;-62
2022/06/12 05:36:32;;;;;;;;;;;;;;;;;;4977591;28;19976;-63
2022/06/12 05:38:57;;;;;;;;;;;;;;;;;;4979557;28;21541;-63
2022/06/12 05:41:22;;;;;;;;;;;;;;;;;;4983686;28;19925;-64
2022/06/12 05:43:48;;;;;;;;;;;;;;;;;;4968749;28;20577;-63
2022/06/12 05:46:13;;;;;;;;;;;;;;;;;;4978635;28;19921;-62
2022/06/12 05:48:39;;;;;;;;;;;;;;;;;;4962518;28;19918;-63
2022/06/12 05:51:04;;;;;;;;;;;;;;;;;;4982286;28;20016;-63
2022/06/12 05:53:29;;;;;;;;;;;;;;;;;;4963574;28;19922;-63
2022/06/12 05:55:54;;;;;;;;;;;;;;;;;;4989200;28;21445;-64
2022/06/12 05:58:22;;;;;;;;;;;;;;;;;;4982485;28;20479;-64
2022/06/12 06:00:50;;;;;;;;;;;;;;;;;;4989197;28;19921;-61
2022/06/12 06:03:15;;;;;;;;;;;;;;;;;;4989845;28;19917;-61
2022/06/12 06:05:41;;;;;;;;;;;;;;;;;;4972293;28;19929;-62
2022/06/12 06:08:06;;;;;;;;;;;;;;;;;;4963602;28;19929;-62
2022/06/12 06:10:31;;;;;;;;;;;;;;;;;;4980941;28;19948;-62
2022/06/12 06:12:56;;;;;;;;;;;;;;;;;;4964658;28;19933;-63
2022/06/12 06:15:22;;;;;;;;;;;;;;;;;;4967988;28;20035;-63
2022/06/12 06:17:47;;;;;;;;;;;;;;;;;;4966240;28;19925;-62
2022/06/12 06:20:12;;;;;;;;;;;;;;;;;;4977558;28;19925;-63
2022/06/12 06:22:38;;;;;;;;;;;;;;;;;;4982088;28;19917;-63
2022/06/12 06:25:04;;;;;;;;;;;;;;;;;;4975341;28;19925;-62
2022/06/12 06:27:29;;;;;;;;;;;;;;;;;;4962885;28;20000;-64
2022/06/12 06:29:57;;;;;;;;;;;;;;;;;;4950292;28;19928;-63
2022/06/12 06:32:25;;;;;;;;;;;;;;;;;;4978727;28;19921;-63
2022/06/12 06:34:50;;;;;;;;;;;;;;;;;;4962441;28;20487;-62
2022/06/12 06:37:15;;;;;;;;;;;;;;;;;;4955022;28;19925;-63
2022/06/12 06:39:42;;;;;;;;;;;;;;;;;;4961639;28;19953;-63
2022/06/12 06:42:07;;;;;;;;;;;;;;;;;;4964710;28;19921;-63
2022/06/12 06:47:20;;;;;;;;;;;;;;;;;;4979946;28;20039;-63
2022/06/12 06:49:48;;;;;;;;;;;;;;;;;;4953283;28;19932;-64
2022/06/12 06:52:15;;;;;;;;;;;;;;;;;;4986859;28;19925;-64
2022/06/12 06:54:40;;;;;;;;;;;;;;;;;;4968020;28;19924;-64
2022/06/12 06:57:08;;;;;;;;;;;;;;;;;;4971394;28;19952;-65
2022/06/12 06:59:41;;;;;;;;;;;;;;;;;;4972160;28;19994;-63
2022/06/12 07:02:06;;;;;;;;;;;;;;;;;;4985934;28;19922;-64
2022/06/12 07:04:32;;;;;;;;;;;;;;;;;;4988000;28;20050;-64
2022/06/12 07:06:58;;;;;;;;;;;;;;;;;;4987751;28;19930;-63
2022/06/12 07:09:24;;;;;;;;;;;;;;;;;;4971750;28;20062;-61
2022/06/12 07:11:49;;;;;;;;;;;;;;;;;;4972875;28;19922;-63
2022/06/12 07:14:14;;;;;;;;;;;;;;;;;;4969014;28;19931;-64
2022/06/12 07:16:40;;;;;;;;;;;;;;;;;;4954220;28;20442;-65
2022/06/12 07:19:06;;;;;;;;;;;;;;;;;;4984544;28;19922;-65
2022/06/12 07:21:32;;;;;;;;;;;;;;;;;;4968771;28;20288;-65
2022/06/12 07:23:57;;;;;;;;;;;;;;;;;;4970624;28;19935;-63
2022/06/12 07:26:25;;;;;;;;;;;;;;;;;;4983447;28;19918;-64
2022/06/12 07:28:50;;;;;;;;;;;;;;;;;;4970630;28;20014;-64
2022/06/12 07:31:16;;;;;;;;;;;;;;;;;;4969240;28;20371;-64
2022/06/12 07:33:41;;;;;;;;;;;;;;;;;;4951646;28;20661;-65
2022/06/12 07:36:07;;;;;;;;;;;;;;;;;;4986120;28;20535;-66
2022/06/12 07:38:32;;;;;;;;;;;;;;;;;;4955133;28;21773;-63
2022/06/12 07:40:58;;;;;;;;;;;;;;;;;;4983688;28;19928;-66
2022/06/12 07:43:23;;;;;;;;;;;;;;;;;;4985670;28;19924;-64
2022/06/12 07:45:51;;;;;;;;;;;;;;;;;;4982440;28;19925;-64
2022/06/12 07:48:17;;;;;;;;;;;;;;;;;;4954271;28;20107;-65
2022/06/12 07:50:43;;;;;;;;;;;;;;;;;;4972178;28;19976;-64
2022/06/12 07:53:11;;;;;;;;;;;;;;;;;;4984847;28;20832;-65
2022/06/12 07:55:39;;;;;;;;;;;;;;;;;;4990035;28;20012;-64
2022/06/12 07:58:06;;;;;;;;;;;;;;;;;;4956696;28;19918;-65
2022/06/12 08:00:31;;;;;;;;;;;;;;;;;;4990754;28;21100;-64
2022/06/12 08:02:57;;;;;;;;;;;;;;;;;;4971309;28;20515;-64
2022/06/12 08:05:23;;;;;;;;;;;;;;;;;;4990522;28;19922;-65
2022/06/12 08:07:51;;;;;;;;;;;;;;;;;;4971959;28;19925;-65
2022/06/12 08:10:16;;;;;;;;;;;;;;;;;;4968989;28;19917;-65
2022/06/12 08:12:41;;;;;;;;;;;;;;;;;;4969881;28;19921;-64
2022/06/12 08:15:07;;;;;;;;;;;;;;;;;;4969366;28;19922;-66
2022/06/12 08:17:35;;;;;;;;;;;;;;;;;;4964796;28;19968;-64
2022/06/12 08:26:04;;;;;;;;;;;;;;;;;;4984757;28;19929;-66
2022/06/12 08:28:30;;;;;;;;;;;;;;;;;;4978639;28;20525;-64
2022/06/12 08:30:56;;;;;;;;;;;;;;;;;;4983422;28;19929;-65
2022/06/12 08:33:23;;;;;;;;;;;;;;;;;;4985825;28;21670;-63
2022/06/12 08:35:51;;;;;;;;;;;;;;;;;;4981854;28;19917;-64
2022/06/12 08:38:19;;;;;;;;;;;;;;;;;;4982090;28;19964;-63
2022/06/12 08:40:44;;;;;;;;;;;;;;;;;;4980066;28;19928;-65
2022/06/12 08:43:09;;;;;;;;;;;;;;;;;;4969315;28;19921;-65
2022/06/12 08:45:34;;;;;;;;;;;;;;;;;;4974971;28;19929;-64
2022/06/12 08:48:02;;;;;;;;;;;;;;;;;;4973109;28;20409;-63
2022/06/12 08:50:28;;;;;;;;;;;;;;;;;;4975387;28;19964;-64
2022/06/12 08:52:54;;;;;;;;;;;;;;;;;;4985700;28;19917;-65
2022/06/12 08:55:19;;;;;;;;;;;;;;;;;;4964968;28;20048;-66
2022/06/12 08:57:44;;;;;;;;;;;;;;;;;;4984650;28;20635;-65
2022/06/12 09:00:12;;;;;;;;;;;;;;;;;;4979507;28;19921;-66
2022/06/12 09:02:37;;;;;;;;;;;;;;;;;;4966796;28;19922;-67
2022/06/12 09:05:03;;;;;;;;;;;;;;;;;;4962289;28;19933;-66
2022/06/12 09:07:28;;;;;;;;;;;;;;;;;;4961135;28;19932;-65
2022/06/12 09:09:54;;;;;;;;;;;;;;;;;;4978798;28;19964;-65
2022/06/12 09:12:22;;;;;;;;;;;;;;;;;;4964510;28;19927;-63
2022/06/12 09:14:47;;;;;;;;;;;;;;;;;;4980972;28;19921;-65
2022/06/12 09:17:15;;;;;;;;;;;;;;;;;;4959227;28;19933;-65
2022/06/12 09:19:40;;;;;;;;;;;;;;;;;;4975959;28;20067;-65
2022/06/12 09:22:09;;;;;;;;;;;;;;;;;;4960751;28;19928;-64
2022/06/12 09:24:38;;;;;;;;;;;;;;;;;;4965833;28;19929;-65
2022/06/12 09:27:03;;;;;;;;;;;;;;;;;;4958372;28;19984;-67
2022/06/12 09:29:28;;;;;;;;;;;;;;;;;;4955511;28;19921;-65
2022/06/12 09:31:54;;;;;;;;;;;;;;;;;;4957219;28;20842;-64
2022/06/12 09:34:22;;;;;;;;;;;;;;;;;;4956794;28;19925;-65
2022/06/12 09:36:47;;;;;;;;;;;;;;;;;;4950868;28;19921;-67
2022/06/12 09:39:13;;;;;;;;;;;;;;;;;;4942114;28;19976;-65
2022/06/12 09:41:38;;;;;;;;;;;;;;;;;;4953086;28;19917;-63
2022/06/12 09:44:03;;;;;;;;;;;;;;;;;;4958474;28;21727;-65
2022/06/12 09:46:31;;;;;;;;;;;;;;;;;;4967069;28;19918;-62
2022/06/12 09:48:56;;;;;;;;;;;;;;;;;;4958470;28;20052;-63
2022/06/12 09:51:24;;;;;;;;;;;;;;;;;;4959152;28;20274;-66
2022/06/12 09:53:50;;;;;;;;;;;;;;;;;;4965160;28;19953;-64
2022/06/12 09:56:16;;;;;;;;;;;;;;;;;;4960784;28;19918;-65
2022/06/12 09:58:43;;;;;;;;;;;;;;;;;;4964180;28;19926;-64
2022/06/12 10:01:10;;;;;;;;;;;;;;;;;;4967096;28;19922;-63
2022/06/12 10:03:39;;;;;;;;;;;;;;;;;;4965654;28;19922;-61
2022/06/12 10:06:04;;;;;;;;;;;;;;;;;;4943593;28;19984;-64
2022/06/12 10:08:32;;;;;;;;;;;;;;;;;;4961102;28;19925;-62
2022/06/12 10:11:00;;;;;;;;;;;;;;;;;;4976267;28;19922;-63
2022/06/12 10:13:26;;;;;;;;;;;;;;;;;;4965055;28;20294;-64
2022/06/12 10:15:53;;;;;;;;;;;;;;;;;;4956014;28;19921;-64
2022/06/12 10:18:19;;;;;;;;;;;;;;;;;;4948108;28;19922;-64
2022/06/12 10:20:46;;;;;;;;;;;;;;;;;;4955950;28;19929;-63
2022/06/12 10:23:12;;;;;;;;;;;;;;;;;;4907236;28;1798874;-63
2022/06/12 10:25:37;;;;;;;;;;;;;;;;;;4949498;28;20036;-66
2022/06/12 10:28:03;;;;;;;;;;;;;;;;;;4951377;28;19926;-63
2022/06/12 10:30:33;;;;;;;;;;;;;;;;;;4964442;28;19917;-63
2022/06/12 10:32:59;;;;;;;;;;;;;;;;;;4965950;28;19928;-64
2022/06/12 10:35:27;;;;;;;;;;;;;;;;;;4959398;28;19932;-64
2022/06/12 10:37:54;;;;;;;;;;;;;;;;;;4959350;28;19997;-66
2022/06/12 10:40:23;;;;;;;;;;;;;;;;;;4961541;28;19952;-63
2022/06/12 10:42:48;;;;;;;;;;;;;;;;;;4961709;28;19925;-62
2022/06/12 10:45:13;;;;;;;;;;;;;;;;;;4965243;28;19922;-62
2022/06/12 10:47:41;;;;;;;;;;;;;;;;;;4959369;28;19935;-61
2022/06/12 10:50:07;;;;;;;;;;;;;;;;;;4963105;28;20000;-64
2022/06/12 10:52:32;;;;;;;;;;;;;;;;;;4962526;28;20064;-61
2022/06/12 10:54:57;;;;;;;;;;;;;;;;;;4962983;28;19922;-63
2022/06/12 10:57:23;;;;;;;;;;;;;;;;;;4958552;28;19929;-64
2022/06/12 10:59:50;;;;;;;;;;;;;;;;;;4956369;28;20009;-65
2022/06/12 11:02:16;;;;;;;;;;;;;;;;;;4959366;28;20004;-62
2022/06/12 11:04:44;;;;;;;;;;;;;;;;;;4957165;28;19918;-65
2022/06/12 11:07:09;;;;;;;;;;;;;;;;;;4956372;28;19925;-61
2022/06/12 11:09:35;;;;;;;;;;;;;;;;;;4962109;28;19926;-62
2022/06/12 11:12:00;;;;;;;;;;;;;;;;;;4958401;28;20694;-62
2022/06/12 11:14:28;;;;;;;;;;;;;;;;;;4960115;28;20012;-64
2022/06/12 11:16:53;;;;;;;;;;;;;;;;;;4964807;28;19932;-62
2022/06/12 11:19:21;;;;;;;;;;;;;;;;;;4976844;28;19928;-64
2022/06/12 11:21:48;;;;;;;;;;;;;;;;;;4958610;28;19973;-63
2022/06/12 11:24:13;;;;;;;;;;;;;;;;;;4961714;28;19968;-65
2022/06/12 11:26:41;;;;;;;;;;;;;;;;;;4963611;28;20345;-65
2022/06/12 11:29:06;;;;;;;;;;;;;;;;;;4959352;28;19930;-65
2022/06/12 11:31:32;;;;;;;;;;;;;;;;;;4966024;28;20027;-67
2022/06/12 11:33:57;;;;;;;;;;;;;;;;;;4976896;28;19972;-64
2022/06/12 11:36:22;;;;;;;;;;;;;;;;;;4956385;28;19933;-64
2022/06/12 11:38:48;;;;;;;;;;;;;;;;;;4973144;28;19922;-64
2022/06/12 11:41:13;;;;;;;;;;;;;;;;;;4955395;28;19922;-67
2022/06/12 11:43:41;;;;;;;;;;;;;;;;;;4962768;28;20041;-65
2022/06/12 11:46:06;;;;;;;;;;;;;;;;;;4958689;28;19930;-65
2022/06/12 11:48:32;;;;;;;;;;;;;;;;;;4959800;28;19930;-64
2022/06/12 11:51:00;;;;;;;;;;;;;;;;;;4940986;28;20033;-62
2022/06/12 11:53:25;;;;;;;;;;;;;;;;;;4949496;28;21806;-64
2022/06/12 11:55:51;;;;;;;;;;;;;;;;;;4960132;28;19929;-63
2022/06/12 11:58:19;;;;;;;;;;;;;;;;;;4958153;28;19928;-63
2022/06/12 12:00:46;;;;;;;;;;;;;;;;;;4975913;28;19921;-63
2022/06/12 12:03:12;;;;;;;;;;;;;;;;;;4947941;28;19972;-62
2022/06/12 12:05:40;;;;;;;;;;;;;;;;;;4966066;28;22113;-62
2022/06/12 12:08:05;;;;;;;;;;;;;;;;;;4965083;28;19922;-61
2022/06/12 12:10:30;;;;;;;;;;;;;;;;;;4961795;28;20023;-64
2022/06/12 12:13:01;;;;;;;;;;;;;;;;;;4961313;28;19922;-64
2022/06/12 12:15:28;;;;;;;;;;;;;;;;;;4960219;28;19922;-66
2022/06/12 12:17:54;;;;;;;;;;;;;;;;;;4959455;28;20416;-65
2022/06/12 12:20:19;;;;;;;;;;;;;;;;;;4966889;28;19928;-64
2022/06/12 12:22:45;;;;;;;;;;;;;;;;;;4961934;28;19925;-65
2022/06/12 12:25:10;;;;;;;;;;;;;;;;;;4980678;28;19928;-64
2022/06/12 12:27:35;;;;;;;;;;;;;;;;;;4981476;28;19996;-64
2022/06/12 12:30:03;;;;;;;;;;;;;;;;;;4976568;28;19921;-63
2022/06/12 12:32:29;;;;;;;;;;;;;;;;;;4975974;28;19922;-63
2022/06/12 12:34:54;;;;;;;;;;;;;;;;;;4952011;28;19953;-63
2022/06/12 12:41:11;;;;;;;;;;;;;;;;;;4983370;28;20399;-65
2022/06/12 12:42:56;;;;;;;;;;;;;;;;;;4984872;28;19957;-63
2022/06/12 12:45:22;;;;;;;;;;;;;;;;;;4980794;28;19928;-66
2022/06/12 12:47:47;;;;;;;;;;;;;;;;;;4967280;28;19921;-66
2022/06/12 12:50:13;;;;;;;;;;;;;;;;;;4963681;28;19928;-61
2022/06/12 12:52:41;;;;;;;;;;;;;;;;;;4965318;28;19928;-62
2022/06/12 12:55:06;;;;;;;;;;;;;;;;;;4983490;28;20364;-63
2022/06/12 12:57:31;;;;;;;;;;;;;;;;;;4968403;28;19928;-63
2022/06/12 12:59:56;;;;;;;;;;;;;;;;;;4984086;28;19939;-64
2022/06/12 13:02:22;;;;;;;;;;;;;;;;;;4980326;28;20538;-64
2022/06/12 13:04:47;;;;;;;;;;;;;;;;;;4982492;28;19921;-66
2022/06/12 13:07:12;;;;;;;;;;;;;;;;;;4988038;28;19921;-65
2022/06/12 13:09:40;;;;;;;;;;;;;;;;;;4955131;28;19921;-63
2022/06/12 13:12:08;;;;;;;;;;;;;;;;;;4967212;28;20971;-64
2022/06/12 13:14:33;;;;;;;;;;;;;;;;;;4966266;28;19956;-65
2022/06/12 13:17:01;;;;;;;;;;;;;;;;;;4982419;28;20060;-64
2022/06/12 13:19:29;;;;;;;;;;;;;;;;;;4989923;28;19948;-63
2022/06/12 13:21:54;;;;;;;;;;;;;;;;;;4976157;28;20759;-66
2022/06/12 13:24:24;;;;;;;;;;;;;;;;;;4985995;28;19925;-62
2022/06/12 13:26:50;;;;;;;;;;;;;;;;;;4982918;28;19929;-61
2022/06/12 13:29:18;;;;;;;;;;;;;;;;;;4983873;28;20363;-62
2022/06/12 13:31:43;;;;;;;;;;;;;;;;;;4985727;28;19926;-60
2022/06/12 13:34:09;;;;;;;;;;;;;;;;;;4948715;28;20869;-62
2022/06/12 13:36:36;;;;;;;;;;;;;;;;;;4972734;28;20436;-64
2022/06/12 13:39:02;;;;;;;;;;;;;;;;;;4987687;28;19925;-62
2022/06/12 13:41:27;;;;;;;;;;;;;;;;;;4967178;28;19936;-64
2022/06/12 13:43:53;;;;;;;;;;;;;;;;;;4982975;28;20020;-64
2022/06/12 13:46:21;;;;;;;;;;;;;;;;;;4965253;28;20028;-59
2022/06/12 13:48:46;;;;;;;;;;;;;;;;;;4983624;28;19936;-62
2022/06/12 13:51:11;;;;;;;;;;;;;;;;;;4967174;28;20368;-62
2022/06/12 13:53:38;;;;;;;;;;;;;;;;;;4981823;28;19932;-64
2022/06/12 13:56:06;;;;;;;;;;;;;;;;;;4967716;28;19949;-62
2022/06/12 13:58:31;;;;;;;;;;;;;;;;;;4947349;28;19922;-65
2022/06/12 14:00:56;;;;;;;;;;;;;;;;;;4961826;28;20044;-63
2022/06/12 14:03:24;;;;;;;;;;;;;;;;;;4962355;28;19932;-62
2022/06/12 14:05:50;;;;;;;;;;;;;;;;;;4974791;28;19917;-61
2022/06/12 14:08:18;;;;;;;;;;;;;;;;;;4983298;28;19929;-64
2022/06/12 14:10:43;;;;;;;;;;;;;;;;;;4981851;28;19926;-61
2022/06/12 14:13:11;;;;;;;;;;;;;;;;;;4960107;28;19971;-62
2022/06/12 14:15:36;;;;;;;;;;;;;;;;;;4964051;28;19925;-62
2022/06/12 14:18:06;;;;;;;;;;;;;;;;;;4978040;28;19928;-60
2022/06/12 14:20:31;;;;;;;;;;;;;;;;;;4964232;28;21035;-60
2022/06/12 14:22:59;;;;;;;;;;;;;;;;;;4981889;28;19925;-63
2022/06/12 14:25:24;;;;;;;;;;;;;;;;;;4949264;28;19927;-62
2022/06/12 14:27:50;;;;;;;;;;;;;;;;;;4979216;28;19925;-64
2022/06/12 14:30:15;;;;;;;;;;;;;;;;;;4961436;28;19918;-63
2022/06/12 14:32:46;;;;;;;;;;;;;;;;;;4981746;28;19921;-63
2022/06/12 14:35:14;;;;;;;;;;;;;;;;;;4979610;28;19967;-61
2022/06/12 14:37:43;;;;;;;;;;;;;;;;;;4986353;28;19922;-62
2022/06/12 14:40:09;;;;;;;;;;;;;;;;;;4969110;28;19921;-63
2022/06/12 14:42:37;;;;;;;;;;;;;;;;;;4983867;28;21228;-63
2022/06/12 14:45:02;;;;;;;;;;;;;;;;;;4980743;28;19922;-62
2022/06/12 14:47:30;;;;;;;;;;;;;;;;;;4968213;28;19933;-64
2022/06/12 14:49:56;;;;;;;;;;;;;;;;;;4951373;28;20024;-61
2022/06/12 14:52:27;;;;;;;;;;;;;;;;;;4966582;28;19926;-61
2022/06/12 14:54:55;;;;;;;;;;;;;;;;;;4981711;28;19918;-61
2022/06/12 14:57:23;;;;;;;;;;;;;;;;;;4966542;28;19921;-61
2022/06/12 14:59:48;;;;;;;;;;;;;;;;;;4981336;28;19921;-60
2022/06/12 15:02:16;;;;;;;;;;;;;;;;;;4968462;28;20055;-62
2022/06/12 15:04:41;;;;;;;;;;;;;;;;;;4982521;28;20532;-61
2022/06/12 15:07:09;;;;;;;;;;;;;;;;;;4969940;28;21925;-62
2022/06/12 15:09:35;;;;;;;;;;;;;;;;;;4986487;28;19925;-65
2022/06/12 15:12:05;;;;;;;;;;;;;;;;;;4965843;28;19921;-62
2022/06/12 15:14:32;;;;;;;;;;;;;;;;;;4981717;28;19922;-61
2022/06/12 15:16:58;;;;;;;;;;;;;;;;;;4979406;28;19980;-62
2022/06/12 15:19:24;;;;;;;;;;;;;;;;;;4981185;28;19949;-61
2022/06/12 15:21:54;;;;;;;;;;;;;;;;;;4980439;28;19924;-62
2022/06/12 15:24:19;;;;;;;;;;;;;;;;;;4956181;28;19976;-61
2022/06/12 15:29:47;;;;;;;;;;;;;;;;;;4972285;28;19936;-61
2022/06/12 15:32:14;;;;;;;;;;;;;;;;;;4960514;28;19945;-62
2022/06/12 15:34:42;;;;;;;;;;;;;;;;;;4959796;28;19941;-63
2022/06/12 15:37:08;;;;;;;;;;;;;;;;;;4963532;28;19979;-60
2022/06/12 15:39:33;;;;;;;;;;;;;;;;;;4965390;28;21202;-58
2022/06/12 15:41:59;;;;;;;;;;;;;;;;;;4961315;28;20440;-60
2022/06/12 15:44:24;;;;;;;;;;;;;;;;;;4943505;28;19922;-61
2022/06/12 15:46:52;;;;;;;;;;;;;;;;;;4964693;28;19965;-60
2022/06/12 15:49:20;;;;;;;;;;;;;;;;;;4957657;28;19926;-60
2022/06/12 15:51:47;;;;;;;;;;;;;;;;;;4960988;28;20815;-60
2022/06/12 15:54:17;;;;;;;;;;;;;;;;;;4957718;28;19924;-61
2022/06/12 15:56:42;;;;;;;;;;;;;;;;;;4973175;28;19971;-61
2022/06/12 15:59:10;;;;;;;;;;;;;;;;;;4962021;28;19921;-60
2022/06/12 16:01:35;;;;;;;;;;;;;;;;;;4955797;28;19992;-61
2022/06/12 16:04:04;;;;;;;;;;;;;;;;;;4962414;28;19921;-61
2022/06/12 16:06:30;;;;;;;;;;;;;;;;;;4956834;28;21805;-60
2022/06/12 16:08:55;;;;;;;;;;;;;;;;;;4963292;28;19926;-61
2022/06/12 16:11:21;;;;;;;;;;;;;;;;;;4964499;28;19928;-61
2022/06/12 16:13:47;;;;;;;;;;;;;;;;;;4940653;28;19988;-62
2022/06/12 16:16:12;;;;;;;;;;;;;;;;;;4939786;28;20661;-63
2022/06/12 16:18:38;;;;;;;;;;;;;;;;;;4958660;28;19996;-61
2022/06/12 16:21:05;;;;;;;;;;;;;;;;;;4941110;28;19918;-62
2022/06/12 16:23:33;;;;;;;;;;;;;;;;;;4957069;28;19926;-59
2022/06/12 16:26:00;;;;;;;;;;;;;;;;;;4955316;28;21145;-61
2022/06/12 16:28:26;;;;;;;;;;;;;;;;;;4963745;28;20419;-62
2022/06/12 16:30:54;;;;;;;;;;;;;;;;;;4960917;28;20208;-61
2022/06/12 16:33:22;;;;;;;;;;;;;;;;;;4959344;28;19918;-61
2022/06/12 16:35:47;;;;;;;;;;;;;;;;;;4967186;28;19948;-61
2022/06/12 16:38:13;;;;;;;;;;;;;;;;;;4987778;28;19924;-61
2022/06/12 16:40:40;;;;;;;;;;;;;;;;;;4955861;28;19926;-60
2022/06/12 16:43:06;;;;;;;;;;;;;;;;;;4972011;28;20247;-61
2022/06/12 16:45:34;;;;;;;;;;;;;;;;;;4966156;28;19925;-60
2022/06/12 16:48:00;;;;;;;;;;;;;;;;;;4967080;28;20475;-60
2022/06/12 16:50:26;;;;;;;;;;;;;;;;;;4966354;28;19925;-61
2022/06/12 16:52:51;;;;;;;;;;;;;;;;;;4968249;28;19922;-60
2022/06/12 16:55:16;;;;;;;;;;;;;;;;;;4971284;28;19957;-60
2022/06/12 16:57:44;;;;;;;;;;;;;;;;;;4965160;28;19922;-60
2022/06/12 17:00:10;;;;;;;;;;;;;;;;;;4969824;28;19928;-57